createdAt,value
2022-08-26T00:00:15.071Z,6.00
2022-08-26T00:03:02.889Z,7.00
2022-08-26T00:05:30.880Z,6.40
2022-08-26T00:07:58.870Z,6.70
2022-08-26T00:10:26.974Z,7.10
2022-08-26T00:12:55.090Z,5.90
2022-08-26T00:15:24.341Z,6.90
2022-08-26T00:17:53.429Z,7.00
2022-08-26T00:20:25.613Z,7.10
2022-08-26T00:22:55.689Z,6.10
2022-08-26T00:25:24.787Z,7.00
2022-08-26T00:27:53.301Z,6.80
2022-08-26T00:30:26.808Z,7.20
2022-08-26T00:32:56.389Z,7.10
2022-08-26T00:35:26.244Z,6.40
2022-08-26T00:37:57.254Z,6.50
2022-08-26T00:40:35.597Z,6.90
2022-08-26T00:43:06.975Z,8.00
2022-08-26T00:46:02.296Z,7.40
2022-08-26T00:48:36.008Z,6.70
2022-08-26T00:51:11.660Z,7.50
2022-08-26T00:53:45.789Z,6.30
2022-08-26T00:56:38.321Z,6.70
2022-08-26T00:59:09.034Z,7.00
2022-08-26T01:01:38.191Z,6.30
2022-08-26T01:04:07.008Z,5.80
2022-08-26T01:06:34.989Z,6.30
2022-08-26T01:09:03.564Z,6.60
2022-08-26T01:11:32.896Z,7.10
2022-08-26T01:14:05.131Z,7.40
2022-08-26T01:16:36.466Z,7.70
2022-08-26T01:19:18.920Z,7.20
2022-08-26T01:22:14.193Z,7.70
2022-08-26T01:24:42.862Z,7.00
2022-08-26T01:27:15.665Z,7.30
2022-08-26T01:29:49.370Z,7.00
2022-08-26T01:32:23.247Z,6.90
2022-08-26T01:37:27.798Z,8.30
2022-08-26T01:39:56.858Z,8.60
2022-08-26T01:42:27.581Z,8.60
2022-08-26T01:45:03.741Z,9.00
2022-08-26T01:47:35.725Z,7.00
2022-08-26T01:50:09.605Z,8.10
2022-08-26T01:52:41.865Z,8.40
2022-08-26T01:55:15.747Z,7.90
2022-08-26T01:58:05.560Z,7.90
2022-08-26T02:00:35.677Z,7.30
2022-08-26T02:03:19.167Z,7.00
2022-08-26T02:06:09.277Z,7.80
2022-08-26T02:08:45.003Z,6.90
2022-08-26T02:11:14.448Z,6.80
2022-08-26T02:13:52.426Z,6.90
2022-08-26T02:16:27.329Z,6.40
2022-08-26T02:18:58.407Z,6.90
2022-08-26T02:21:26.726Z,7.40
2022-08-26T02:23:56.392Z,7.00
2022-08-26T02:26:28.389Z,6.60
2022-08-26T02:29:04.133Z,8.40
2022-08-26T02:31:32.461Z,6.90
2022-08-26T02:34:15.699Z,7.30
2022-08-26T02:36:44.201Z,6.40
2022-08-26T02:39:15.019Z,6.80
2022-08-26T02:41:45.750Z,7.20
2022-08-26T02:44:14.054Z,7.00
2022-08-26T02:46:44.514Z,7.70
2022-08-26T02:49:16.988Z,8.20
2022-08-26T02:51:46.843Z,7.60
2022-08-26T02:54:15.511Z,6.40
2022-08-26T02:56:44.013Z,6.60
2022-08-26T02:59:15.536Z,7.20
2022-08-26T03:01:45.445Z,7.20
2022-08-26T03:04:13.934Z,5.20
2022-08-26T03:06:43.472Z,7.10
2022-08-26T03:09:20.784Z,6.90
2022-08-26T03:11:48.697Z,7.00
2022-08-26T03:14:17.258Z,7.30
2022-08-26T03:16:48.441Z,7.90
2022-08-26T03:19:17.679Z,7.20
2022-08-26T03:21:47.337Z,7.30
2022-08-26T03:24:17.762Z,6.80
2022-08-26T03:26:52.641Z,8.00
2022-08-26T03:29:41.424Z,7.40
2022-08-26T03:32:09.684Z,7.60
2022-08-26T03:34:38.858Z,7.00
2022-08-26T03:37:07.039Z,7.10
2022-08-26T03:39:35.596Z,7.60
2022-08-26T03:42:03.986Z,6.50
2022-08-26T03:44:42.094Z,7.40
2022-08-26T03:47:10.659Z,7.60
2022-08-26T03:49:39.060Z,7.90
2022-08-26T03:52:07.457Z,7.90
2022-08-26T03:54:35.926Z,6.80
2022-08-26T03:57:04.329Z,7.80
2022-08-26T03:59:33.371Z,7.20
2022-08-26T04:02:01.680Z,7.00
2022-08-26T04:04:30.746Z,6.80
2022-08-26T04:06:59.927Z,6.80
2022-08-26T04:09:28.174Z,6.50
2022-08-26T04:11:58.873Z,6.90
2022-08-26T04:14:28.542Z,5.90
2022-08-26T04:16:57.075Z,7.20
2022-08-26T04:19:27.446Z,5.90
2022-08-26T04:21:55.700Z,6.20
2022-08-26T04:24:26.886Z,6.30
2022-08-26T04:26:56.821Z,6.00
2022-08-26T04:29:27.366Z,6.30
2022-08-26T04:31:56.647Z,5.10
2022-08-26T04:34:28.750Z,6.00
2022-08-26T04:36:58.933Z,6.20
2022-08-26T04:39:28.525Z,5.60
2022-08-26T04:41:57.905Z,6.10
2022-08-26T04:44:29.593Z,5.60
2022-08-26T04:46:58.973Z,7.00
2022-08-26T04:49:28.006Z,4.10
2022-08-26T04:52:05.508Z,4.30
2022-08-26T04:55:00.995Z,6.90
2022-08-26T04:57:29.185Z,6.50
2022-08-26T04:59:58.221Z,7.40
2022-08-26T05:02:26.420Z,7.80
2022-08-26T05:04:55.179Z,10.20
2022-08-26T05:07:23.651Z,10.10
2022-08-26T05:09:54.010Z,9.80
2022-08-26T05:12:23.598Z,9.70
2022-08-26T05:14:52.837Z,9.30
2022-08-26T05:17:21.382Z,7.60
2022-08-26T05:19:51.006Z,8.10
2022-08-26T05:22:20.620Z,7.70
2022-08-26T05:24:49.931Z,9.20
2022-08-26T05:27:18.108Z,8.80
2022-08-26T05:29:46.314Z,10.00
2022-08-26T05:32:59.926Z,7.80
2022-08-26T05:35:34.607Z,7.40
2022-08-26T05:38:05.906Z,6.70
2022-08-26T05:40:44.687Z,7.50
2022-08-26T05:43:13.689Z,7.40
2022-08-26T05:45:46.072Z,7.70
2022-08-26T05:48:17.096Z,6.30
2022-08-26T05:50:51.263Z,6.90
2022-08-26T05:53:21.472Z,6.60
2022-08-26T05:55:51.936Z,6.30
2022-08-26T05:58:21.814Z,6.10
2022-08-26T06:01:02.260Z,6.60
2022-08-26T06:03:32.445Z,6.60
2022-08-26T06:06:05.103Z,6.50
2022-08-26T06:08:36.351Z,7.00
2022-08-26T06:11:18.644Z,5.90
2022-08-26T06:14:03.074Z,5.90
2022-08-26T06:16:44.446Z,6.10
2022-08-26T06:19:19.379Z,6.80
2022-08-26T06:21:55.082Z,6.30
2022-08-26T06:24:48.167Z,6.00
2022-08-26T06:27:30.597Z,6.80
2022-08-26T06:30:10.035Z,6.80
2022-08-26T06:32:45.828Z,6.30
2022-08-26T06:35:21.921Z,6.30
2022-08-26T06:37:57.556Z,7.10
2022-08-26T06:40:33.389Z,6.40
2022-08-26T06:43:09.371Z,8.00
2022-08-26T06:45:47.833Z,7.10
2022-08-26T06:48:24.965Z,6.40
2022-08-26T06:51:24.189Z,7.80
2022-08-26T06:54:00.206Z,6.40
2022-08-26T06:56:41.998Z,6.50
2022-08-26T06:59:18.497Z,7.80
2022-08-26T07:01:54.982Z,6.50
2022-08-26T07:04:30.121Z,6.40
2022-08-26T07:07:06.649Z,6.80
2022-08-26T07:09:43.524Z,6.70
2022-08-26T07:12:17.730Z,6.60
2022-08-26T07:14:52.047Z,6.90
2022-08-26T07:17:21.990Z,7.20
2022-08-26T07:19:58.610Z,7.10
2022-08-26T07:22:27.424Z,6.50
2022-08-26T07:24:55.301Z,7.60
2022-08-26T07:27:30.862Z,7.10
2022-08-26T07:29:58.893Z,6.80
2022-08-26T07:32:27.217Z,6.40
2022-08-26T07:34:55.159Z,7.10
2022-08-26T07:37:23.313Z,6.90
2022-08-26T07:39:51.588Z,7.20
2022-08-26T07:42:20.898Z,6.50
2022-08-26T07:44:49.560Z,7.20
2022-08-26T07:47:25.287Z,7.20
2022-08-26T07:49:57.699Z,7.00
2022-08-26T07:52:37.658Z,6.90
2022-08-26T07:55:15.231Z,6.60
2022-08-26T07:57:49.209Z,6.30
2022-08-26T08:02:45.545Z,6.90
2022-08-26T08:05:17.768Z,7.30
2022-08-26T08:07:46.652Z,6.90
2022-08-26T08:10:18.787Z,6.00
2022-08-26T08:12:50.396Z,6.30
2022-08-26T08:15:21.247Z,6.90
2022-08-26T08:17:50.558Z,6.90
2022-08-26T08:20:22.478Z,6.20
2022-08-26T08:22:52.631Z,7.20
2022-08-26T08:25:22.588Z,6.90
2022-08-26T08:27:56.022Z,7.20
2022-08-26T08:30:35.015Z,6.70
2022-08-26T08:33:03.486Z,7.40
2022-08-26T08:35:40.411Z,6.30
2022-08-26T08:38:17.423Z,7.50
2022-08-26T08:40:46.119Z,6.20
2022-08-26T08:43:37.542Z,6.80
2022-08-26T08:46:17.640Z,6.60
2022-08-26T08:48:51.503Z,6.70
2022-08-26T08:51:27.625Z,6.50
2022-08-26T08:53:56.938Z,5.70
2022-08-26T08:56:41.763Z,7.00
2022-08-26T08:59:20.585Z,6.50
2022-08-26T09:01:54.130Z,5.70
2022-08-26T09:05:03.067Z,6.10
2022-08-26T09:07:47.080Z,5.80
2022-08-26T09:10:33.955Z,6.40
2022-08-26T09:13:25.308Z,6.30
2022-08-26T09:15:55.199Z,5.50
2022-08-26T09:18:35.545Z,5.70
2022-08-26T09:21:09.484Z,5.60
2022-08-26T09:23:42.787Z,5.50
2022-08-26T09:26:30.663Z,5.90
2022-08-26T09:29:03.397Z,5.40
2022-08-26T09:31:35.937Z,5.30
2022-08-26T09:34:23.160Z,5.10
2022-08-26T09:36:56.637Z,6.70
2022-08-26T09:39:31.583Z,6.00
2022-08-26T09:42:10.373Z,5.30
2022-08-26T09:45:06.610Z,6.10
2022-08-26T09:47:38.414Z,5.10
2022-08-26T09:50:34.358Z,5.00
2022-08-26T09:53:09.942Z,5.30
2022-08-26T09:55:43.908Z,5.60
2022-08-26T09:58:32.573Z,5.00
2022-08-26T10:01:04.400Z,5.00
2022-08-26T10:03:36.180Z,4.80
2022-08-26T10:06:07.659Z,4.70
2022-08-26T10:08:42.448Z,4.40
2022-08-26T10:11:35.486Z,4.40
2022-08-26T10:14:11.196Z,5.10
2022-08-26T10:16:58.399Z,4.40
2022-08-26T10:19:56.135Z,4.50
2022-08-26T10:22:52.691Z,4.90
2022-08-26T10:25:27.703Z,4.80
2022-08-26T10:28:51.171Z,5.20
2022-08-26T10:31:40.164Z,4.70
2022-08-26T10:34:12.354Z,4.80
2022-08-26T10:37:13.922Z,4.40
2022-08-26T10:40:07.752Z,5.90
2022-08-26T10:42:54.547Z,6.30
2022-08-26T10:45:29.801Z,5.20
2022-08-26T10:48:07.545Z,4.20
2022-08-26T10:50:41.772Z,4.50
2022-08-26T10:53:39.878Z,4.20
2022-08-26T10:56:44.812Z,4.20
2022-08-26T11:00:31.413Z,4.50
2022-08-26T11:03:39.313Z,4.90
2022-08-26T11:06:19.991Z,4.50
2022-08-26T11:08:48.017Z,4.40
2022-08-26T11:11:40.891Z,4.50
2022-08-26T11:14:11.530Z,4.50
2022-08-26T11:16:45.318Z,3.80
2022-08-26T11:19:56.807Z,4.50
2022-08-26T11:22:33.382Z,4.60
2022-08-26T11:25:09.450Z,4.10
2022-08-26T11:27:40.281Z,4.80
2022-08-26T11:30:10.822Z,4.90
2022-08-26T11:32:41.294Z,4.50
2022-08-26T11:35:19.431Z,4.60
2022-08-26T11:38:04.407Z,4.40
2022-08-26T11:40:38.564Z,4.00
2022-08-26T11:43:13.007Z,4.10
2022-08-26T11:45:47.597Z,4.50
2022-08-26T11:48:31.215Z,3.80
2022-08-26T11:51:12.491Z,5.10
2022-08-26T11:53:47.178Z,4.40
2022-08-26T11:56:28.823Z,4.80
2022-08-26T11:59:03.558Z,5.20
2022-08-26T12:01:35.772Z,4.40
2022-08-26T12:04:10.716Z,4.50
2022-08-26T12:06:45.898Z,4.50
2022-08-26T12:09:30.533Z,4.50
2022-08-26T12:12:22.088Z,4.50
2022-08-26T12:15:06.369Z,5.20
2022-08-26T12:17:34.532Z,4.40
2022-08-26T12:20:17.075Z,4.50
2022-08-26T12:22:48.096Z,4.20
2022-08-26T12:25:24.036Z,4.60
2022-08-26T12:27:54.068Z,4.30
2022-08-26T12:30:26.266Z,4.30
2022-08-26T12:33:22.186Z,4.10
2022-08-26T12:35:56.325Z,4.40
2022-08-26T12:38:27.464Z,4.80
2022-08-26T12:40:57.170Z,4.40
2022-08-26T12:43:44.704Z,4.30
2022-08-26T12:46:30.044Z,4.00
2022-08-26T12:49:01.572Z,3.70
2022-08-26T12:51:33.043Z,4.70
2022-08-26T12:54:06.812Z,4.30
2022-08-26T12:56:41.407Z,4.20
2022-08-26T12:59:24.434Z,4.80
2022-08-26T13:01:54.216Z,4.00
2022-08-26T13:04:31.318Z,4.80
2022-08-26T13:07:18.356Z,3.70
2022-08-26T13:09:46.372Z,3.70
2022-08-26T13:12:28.272Z,4.30
2022-08-26T13:14:58.939Z,3.90
2022-08-26T13:17:29.289Z,3.70
2022-08-26T13:20:03.230Z,3.60
2022-08-26T13:22:32.906Z,3.50
2022-08-26T13:25:01.116Z,3.70
2022-08-26T13:27:29.250Z,3.40
2022-08-26T13:29:58.007Z,3.50
2022-08-26T13:32:27.306Z,2.80
2022-08-26T13:34:59.736Z,3.30
2022-08-26T13:37:31.504Z,3.40
2022-08-26T13:40:07.690Z,3.20
2022-08-26T13:42:35.837Z,3.40
2022-08-26T13:45:04.845Z,3.00
2022-08-26T13:47:32.900Z,3.90
2022-08-26T13:50:01.033Z,3.00
2022-08-26T13:52:30.565Z,2.70
2022-08-26T13:55:00.679Z,3.40
2022-08-26T13:57:30.341Z,3.40
2022-08-26T14:00:01.917Z,3.30
2022-08-26T14:02:37.916Z,3.10
2022-08-26T14:05:06.513Z,3.20
2022-08-26T14:07:34.601Z,3.30
2022-08-26T14:10:03.140Z,3.20
2022-08-26T14:12:31.333Z,3.30
2022-08-26T14:15:00.585Z,3.40
2022-08-26T14:17:28.733Z,3.00
2022-08-26T14:19:59.015Z,3.20
2022-08-26T14:22:27.965Z,3.00
2022-08-26T14:24:56.655Z,3.30
2022-08-26T14:27:25.652Z,3.50
2022-08-26T14:29:54.493Z,3.30
2022-08-26T14:32:27.411Z,3.20
2022-08-26T14:34:56.196Z,3.10
2022-08-26T14:37:24.419Z,3.00
2022-08-26T14:39:52.677Z,3.20
2022-08-26T14:42:26.593Z,3.50
2022-08-26T14:45:02.914Z,3.40
2022-08-26T14:47:31.365Z,3.00
2022-08-26T14:49:59.359Z,2.80
2022-08-26T14:52:27.929Z,3.10
2022-08-26T14:54:55.980Z,4.10
2022-08-26T14:57:24.209Z,3.00
2022-08-26T14:59:52.362Z,3.00
2022-08-26T15:02:32.626Z,3.10
2022-08-26T15:05:04.281Z,3.80
2022-08-26T15:07:32.336Z,3.30
2022-08-26T15:10:00.800Z,3.00
2022-08-26T15:12:28.975Z,3.00
2022-08-26T15:14:57.273Z,2.90
2022-08-26T15:17:26.467Z,2.70
2022-08-26T15:19:54.565Z,3.00
2022-08-26T15:22:23.052Z,2.80
2022-08-26T15:24:51.758Z,2.70
2022-08-26T15:27:21.871Z,3.20
2022-08-26T15:29:50.621Z,2.80
2022-08-26T15:32:18.829Z,3.10
2022-08-26T15:34:47.420Z,4.10
2022-08-26T15:37:17.075Z,3.20
2022-08-26T15:39:45.232Z,2.80
2022-08-26T15:42:13.382Z,3.00
2022-08-26T15:44:45.647Z,3.40
2022-08-26T15:47:14.680Z,3.50
2022-08-26T15:49:44.868Z,2.90
2022-08-26T15:52:15.712Z,3.20
2022-08-26T15:54:43.835Z,2.90
2022-08-26T15:57:14.361Z,2.80
2022-08-26T15:59:43.453Z,3.80
2022-08-26T16:02:11.686Z,3.30
2022-08-26T16:04:39.852Z,3.20
2022-08-26T16:07:07.929Z,3.40
2022-08-26T16:09:36.180Z,3.40
2022-08-26T16:12:04.377Z,3.60
2022-08-26T16:14:32.590Z,3.20
2022-08-26T16:17:00.804Z,3.20
2022-08-26T16:19:29.419Z,3.10
2022-08-26T16:21:58.014Z,3.60
2022-08-26T16:24:30.220Z,3.20
2022-08-26T16:26:58.827Z,3.40
2022-08-26T16:29:27.879Z,3.80
2022-08-26T16:31:55.902Z,3.90
2022-08-26T16:34:24.318Z,3.20
2022-08-26T16:36:52.831Z,3.30
2022-08-26T16:39:20.993Z,3.40
2022-08-26T16:41:48.952Z,3.60
2022-08-26T16:44:17.065Z,3.70
2022-08-26T16:46:45.922Z,4.20
2022-08-26T16:49:14.441Z,3.60
2022-08-26T16:51:42.414Z,4.00
2022-08-26T16:54:10.680Z,4.00
2022-08-26T16:56:39.303Z,4.00
2022-08-26T16:59:11.778Z,4.20
2022-08-26T17:01:40.036Z,4.30
2022-08-26T17:04:08.057Z,4.80
2022-08-26T17:06:36.389Z,4.50
2022-08-26T17:09:05.272Z,5.00
2022-08-26T17:11:34.327Z,4.40
2022-08-26T17:14:03.091Z,4.80
2022-08-26T17:16:32.052Z,4.90
2022-08-26T17:19:00.452Z,4.90
2022-08-26T17:21:29.222Z,5.70
2022-08-26T17:23:57.250Z,5.80
2022-08-26T17:26:26.095Z,5.10
2022-08-26T17:28:54.499Z,5.10
2022-08-26T17:31:23.518Z,5.30
2022-08-26T17:33:53.508Z,4.90
2022-08-26T17:36:27.923Z,4.70
2022-08-26T17:38:58.432Z,4.90
2022-08-26T17:41:26.995Z,5.80
2022-08-26T17:43:55.281Z,5.40
2022-08-26T17:46:24.186Z,5.10
2022-08-26T17:48:52.290Z,5.20
2022-08-26T17:51:22.128Z,4.90
2022-08-26T17:53:52.027Z,5.30
2022-08-26T17:56:27.247Z,5.00
2022-08-26T17:59:02.525Z,5.00
2022-08-26T18:01:32.762Z,4.80
2022-08-26T18:04:01.149Z,5.20
2022-08-26T18:06:30.781Z,5.00
2022-08-26T18:09:00.321Z,5.20
2022-08-26T18:11:29.311Z,5.50
2022-08-26T18:13:57.323Z,4.90
2022-08-26T18:16:25.377Z,5.60
2022-08-26T18:18:53.731Z,5.10
2022-08-26T18:21:24.720Z,4.80
2022-08-26T18:23:54.218Z,5.10
2022-08-26T18:26:28.582Z,5.70
2022-08-26T18:28:56.965Z,5.00
2022-08-26T18:31:25.996Z,5.40
2022-08-26T18:33:54.535Z,6.00
2022-08-26T18:36:40.860Z,5.00
2022-08-26T18:39:09.861Z,5.40
2022-08-26T18:41:44.142Z,5.00
2022-08-26T18:44:14.136Z,5.70
2022-08-26T18:46:44.200Z,5.80
2022-08-26T18:49:16.458Z,5.80
2022-08-26T18:51:45.108Z,5.50
2022-08-26T18:54:13.475Z,5.70
2022-08-26T18:56:42.463Z,6.10
2022-08-26T18:59:11.842Z,5.10
2022-08-26T19:01:41.087Z,5.50
2022-08-26T19:04:14.114Z,5.60
2022-08-26T19:06:47.161Z,5.00
2022-08-26T19:09:17.843Z,5.60
2022-08-26T19:11:47.201Z,5.40
2022-08-26T19:14:17.777Z,5.90
2022-08-26T19:16:47.820Z,5.40
2022-08-26T19:19:16.481Z,5.80
2022-08-26T19:21:45.662Z,5.60
2022-08-26T19:24:17.692Z,5.50
2022-08-26T19:26:48.421Z,7.20
2022-08-26T19:31:46.424Z,6.00
2022-08-26T19:34:18.327Z,5.70
2022-08-26T19:36:49.476Z,6.70
2022-08-26T19:39:17.504Z,5.60
2022-08-26T19:41:45.632Z,5.70
2022-08-26T19:44:38.304Z,6.50
2022-08-26T19:47:09.610Z,6.10
2022-08-26T19:49:39.278Z,6.10
2022-08-26T19:52:07.529Z,5.50
2022-08-26T19:54:36.450Z,6.60
2022-08-26T19:57:05.839Z,5.90
2022-08-26T19:59:38.748Z,5.90
2022-08-26T20:02:11.373Z,7.10
2022-08-26T20:04:42.044Z,6.40
2022-08-26T20:07:18.577Z,5.70
2022-08-26T20:09:51.048Z,6.80
2022-08-26T20:12:19.597Z,6.20
2022-08-26T20:14:47.993Z,5.90
2022-08-26T20:17:18.787Z,6.00
2022-08-26T20:20:07.199Z,6.80
2022-08-26T20:22:56.220Z,6.70
2022-08-26T20:25:26.331Z,7.50
2022-08-26T20:27:54.697Z,6.60
2022-08-26T20:30:26.386Z,6.30
2022-08-26T20:33:01.053Z,5.80
2022-08-26T20:35:29.617Z,5.90
2022-08-26T20:37:58.004Z,6.20
2022-08-26T20:40:26.546Z,9.40
2022-08-26T20:42:55.251Z,5.60
2022-08-26T20:45:24.077Z,7.40
2022-08-26T20:47:53.000Z,6.00
2022-08-26T20:50:21.347Z,5.90
2022-08-26T20:52:49.883Z,6.30
2022-08-26T20:55:19.088Z,5.80
2022-08-26T20:57:49.992Z,5.90
2022-08-26T21:00:26.494Z,7.00
2022-08-26T21:02:56.941Z,6.60
2022-08-26T21:05:25.191Z,5.90
2022-08-26T21:07:53.702Z,10.10
2022-08-26T21:10:22.611Z,15.20
2022-08-26T21:12:51.836Z,7.60
2022-08-26T21:15:19.949Z,6.10
2022-08-26T21:17:48.679Z,7.30
2022-08-26T21:20:18.932Z,8.50
2022-08-26T21:22:47.426Z,6.40
2022-08-26T21:25:15.752Z,6.50
2022-08-26T21:27:43.957Z,5.90
2022-08-26T21:30:15.053Z,5.90
2022-08-26T21:32:43.595Z,6.00
2022-08-26T21:35:11.670Z,6.00
2022-08-26T21:37:39.938Z,6.30
2022-08-26T21:40:10.544Z,6.10
2022-08-26T21:42:38.903Z,6.50
2022-08-26T21:45:07.589Z,6.00
2022-08-26T21:47:36.697Z,6.70
2022-08-26T21:50:05.743Z,5.40
2022-08-26T21:52:33.774Z,6.30
2022-08-26T21:55:03.536Z,5.80
2022-08-26T21:57:37.157Z,6.30
2022-08-26T22:00:09.296Z,6.10
2022-08-26T22:02:37.591Z,6.10
2022-08-26T22:05:05.982Z,5.90
2022-08-26T22:07:34.369Z,6.50
2022-08-26T22:10:02.443Z,6.80
2022-08-26T22:12:30.451Z,5.30
2022-08-26T22:14:58.879Z,6.10
2022-08-26T22:17:29.419Z,6.10
2022-08-26T22:19:57.464Z,6.60
2022-08-26T22:22:31.885Z,6.50
2022-08-26T22:25:00.379Z,7.40
2022-08-26T22:27:29.712Z,6.20
2022-08-26T22:29:57.937Z,6.00
2022-08-26T22:32:25.828Z,5.80
2022-08-26T22:34:53.890Z,6.10
2022-08-26T22:37:21.884Z,6.10
2022-08-26T22:39:51.942Z,6.20
2022-08-26T22:42:20.026Z,5.90
2022-08-26T22:44:51.370Z,6.40
2022-08-26T22:47:19.376Z,6.80
2022-08-26T22:49:47.969Z,6.90
2022-08-26T22:52:16.006Z,6.30
2022-08-26T22:54:43.998Z,6.50
2022-08-26T22:57:12.067Z,6.80
2022-08-26T22:59:40.725Z,6.40
2022-08-26T23:02:16.153Z,6.20
2022-08-26T23:04:44.075Z,6.20
2022-08-26T23:07:14.486Z,6.20
2022-08-26T23:09:42.738Z,6.90
2022-08-26T23:12:13.273Z,6.40
2022-08-26T23:14:41.763Z,6.30
2022-08-26T23:17:15.887Z,6.40
2022-08-26T23:19:45.199Z,5.90
2022-08-26T23:22:13.288Z,6.60
2022-08-26T23:24:41.629Z,6.20
2022-08-26T23:27:10.177Z,7.20
2022-08-26T23:29:39.912Z,6.60
2022-08-26T23:32:08.072Z,6.40
2022-08-26T23:34:54.757Z,6.60
2022-08-26T23:37:32.454Z,6.30
2022-08-26T23:40:05.278Z,5.90
2022-08-26T23:42:34.717Z,7.40
2022-08-26T23:45:08.139Z,6.00
2022-08-26T23:47:36.776Z,6.50
2022-08-26T23:50:05.951Z,5.80
2022-08-26T23:52:52.652Z,6.70
2022-08-26T23:55:23.781Z,6.00
2022-08-26T23:57:51.855Z,6.90
